AU-0075 weather

CLOSED Horse Hair Plain Aerodrome
Hotham, Victoria, Australia

Public forecast

Using degrees Celsius for public forecast. Weather courtesy of forecast.io.

Closest aviation weather report (METAR) to Horse Hair Plain Aerodrome

Closest report is Albury Airport, 60.3 nm (111.7 km) NNW. Retrieved 2020/01/28 09:00 UTC (36 minutes ago):

YMAY 280900Z AUTO 25011KT 9999 // NCD 31/03 Q1011

Closest aviation forecast (TAF) to Horse Hair Plain Aerodrome

Closest forecast is Wangaratta Airport, 60.7 nm (112.4 km) NW. Retrieved 2020/01/28 08:03 UTC (2 hours ago):

TAF YWGT 280631Z 2808/2820 26012KT CAVOK BECMG 2808/2810 21005KT CAVOK